Time;durP1;ratioP1;P1;durP2;ratioP2;P2;SDS_P1;SDS_P2;PMS_P1;PMS_P2;Temp;Humidity;BMP_temperature;BMP_pressure;BME280_temperature;BME280_humidity;BME280_pressure;Samples;Min_cycle;Max_cycle;Signal;HPM_P1;HPM_P2
2022/01/24 00:01:17;;;;;;;4.20;3.90;;;6.50;99.90;;;;;;2611799;54;21501;-77
2022/01/24 00:03:43;;;;;;;4.50;4.10;;;6.60;99.90;;;;;;2611616;47;20416;-76
2022/01/24 00:06:12;;;;;;;4.07;3.70;;;6.50;99.90;;;;;;2612034;54;20512;-76
2022/01/24 00:08:38;;;;;;;3.10;2.90;;;6.70;99.90;;;;;;2611935;47;20171;-76
2022/01/24 00:11:09;;;;;;;3.60;3.30;;;6.90;99.90;;;;;;2611205;54;20420;-76
2022/01/24 00:14:18;;;;;;;4.63;4.23;;;6.80;99.90;;;;;;2611134;47;20427;-76
2022/01/24 00:27:09;;;;;;;4.00;3.70;;;7.10;99.90;;;;;;2611864;47;20408;-77
2022/01/24 00:29:35;;;;;;;5.33;4.80;;;6.90;99.90;;;;;;2611831;54;20433;-76
2022/01/24 00:32:01;;;;;;;4.10;3.80;;;7.20;99.90;;;;;;2611554;54;20155;-77
2022/01/24 00:34:26;;;;;;;4.13;3.77;;;7.50;99.90;;;;;;2611704;54;20181;-77
2022/01/24 00:36:53;;;;;;;4.20;3.60;;;7.70;99.90;;;;;;2611082;54;20403;-76
2022/01/24 00:39:20;;;;;;;3.90;3.60;;;7.30;99.90;;;;;;2612049;54;21182;-76
2022/01/24 00:42:00;;;;;;;5.63;3.80;;;6.80;99.90;;;;;;2611715;39;20917;-76
2022/01/24 00:44:50;;;;;;;4.80;4.40;;;6.90;99.90;;;;;;2612013;54;20423;-75
2022/01/24 00:55:15;;;;;;;3.93;3.63;;;7.30;99.90;;;;;;2610943;54;20503;-75
2022/01/24 00:57:41;;;;;;;5.00;4.30;;;7.50;99.90;;;;;;2610972;51;20971;-76
2022/01/24 01:00:08;;;;;;;4.73;4.23;;;7.50;99.90;;;;;;2611326;47;20218;-75
2022/01/24 01:02:33;;;;;;;4.43;4.03;;;7.00;99.90;;;;;;2612402;54;20157;-75
2022/01/24 01:07:54;;;;;;;4.47;4.07;;;7.00;99.90;;;;;;2611414;54;20192;-75
2022/01/24 01:18:35;;;;;;;7.33;4.63;;;8.00;99.90;;;;;;2612040;47;20522;-76
2022/01/24 01:23:31;;;;;;;3.50;3.20;;;7.70;99.90;;;;;;2612552;39;20828;-78
2022/01/24 01:26:00;;;;;;;4.07;3.17;;;7.40;99.90;;;;;;2611611;54;20147;-76
2022/01/24 01:28:27;;;;;;;4.33;3.47;;;7.50;99.90;;;;;;2612762;54;20964;-77
2022/01/24 01:30:57;;;;;;;4.17;3.77;;;6.90;99.90;;;;;;2612662;54;20418;-76
2022/01/24 01:33:38;;;;;;;4.10;3.63;;;7.00;99.90;;;;;;2611632;54;20411;-76
2022/01/24 01:52:39;;;;;;;3.80;3.57;;;6.70;99.90;;;;;;2612515;47;20434;-76
2022/01/24 01:55:25;;;;;;;3.50;3.20;;;6.60;99.90;;;;;;2611825;47;20514;-76
2022/01/24 01:57:51;;;;;;;3.83;3.53;;;6.70;99.90;;;;;;2613034;54;20404;-76
2022/01/24 02:00:18;;;;;;;3.83;3.23;;;7.00;99.90;;;;;;2612624;39;20810;-76
2022/01/24 02:02:43;;;;;;;4.23;3.90;;;6.90;99.90;;;;;;2613516;39;20863;-76
2022/01/24 02:05:10;;;;;;;4.20;3.80;;;7.60;99.90;;;;;;2611070;47;20421;-75
2022/01/24 02:07:46;;;;;;;3.57;3.27;;;7.50;99.90;;;;;;2611848;54;20187;-77
2022/01/24 02:10:12;;;;;;;5.20;4.70;;;7.60;99.90;;;;;;2612713;31;20820;-77
2022/01/24 02:12:38;;;;;;;3.93;3.63;;;7.40;99.90;;;;;;2611857;54;20419;-77
2022/01/24 02:15:04;;;;;;;4.20;3.80;;;7.40;99.90;;;;;;2611872;54;20424;-77
2022/01/24 02:17:44;;;;;;;5.90;3.77;;;7.50;99.90;;;;;;2612224;31;20893;-77
2022/01/24 02:20:27;;;;;;;3.70;3.40;;;7.50;99.90;;;;;;2612205;39;20868;-76
2022/01/24 02:23:17;;;;;;;4.27;3.90;;;7.70;99.90;;;;;;2612225;54;20487;-76
2022/01/24 02:25:38;;;;;;;4.03;3.10;;;8.10;99.90;;;;;;2612128;54;20415;-77
2022/01/24 02:28:05;;;;;;;3.80;3.50;;;7.50;99.90;;;;;;2612495;39;20858;-76
2022/01/24 02:32:57;;;;;;;3.53;3.00;;;7.30;99.90;;;;;;2613163;54;20423;-76
2022/01/24 02:35:22;;;;;;;3.70;3.40;;;7.70;99.90;;;;;;2612209;39;20961;-76
2022/01/24 02:37:48;;;;;;;3.63;3.33;;;7.50;99.90;;;;;;2612062;54;20261;-76
2022/01/24 02:40:18;;;;;;;3.93;3.57;;;7.20;99.90;;;;;;2611314;46;20158;-76
2022/01/24 02:48:25;;;;;;;3.77;3.47;;;6.40;99.90;;;;;;2611982;54;20412;-77
2022/01/24 02:53:42;;;;;;;4.10;3.70;;;6.50;99.90;;;;;;2612303;54;20579;-76
2022/01/24 02:56:08;;;;;;;2.90;2.70;;;6.70;99.90;;;;;;2612573;54;20456;-76
2022/01/24 02:58:35;;;;;;;3.47;3.17;;;6.50;99.90;;;;;;2613020;39;20831;-76
2022/01/24 03:01:06;;;;;;;3.50;3.20;;;6.30;99.90;;;;;;2611219;54;20388;-76
2022/01/24 03:03:33;;;;;;;3.83;3.47;;;6.90;99.90;;;;;;2611574;54;20427;-76
2022/01/24 03:05:59;;;;;;;3.47;3.00;;;7.40;99.90;;;;;;2612927;54;20391;-76
2022/01/24 03:08:24;;;;;;;2.97;2.73;;;7.50;99.90;;;;;;2613881;54;21077;-76
2022/01/24 03:10:52;;;;;;;3.40;3.10;;;6.80;99.90;;;;;;2613337;54;20680;-77
2022/01/24 03:15:51;;;;;;;4.10;3.07;;;6.90;99.90;;;;;;2611329;47;20497;-76
2022/01/24 03:18:18;;;;;;;7.47;3.30;;;7.10;99.90;;;;;;2611370;51;20528;-76
2022/01/24 03:20:44;;;;;;;3.10;2.90;;;7.40;99.90;;;;;;2611886;47;20416;-77
2022/01/24 03:23:16;;;;;;;3.00;2.80;;;7.90;99.90;;;;;;2611500;47;20524;-76
2022/01/24 03:25:42;;;;;;;3.90;3.60;;;7.90;99.90;;;;;;2611037;47;20429;-76
2022/01/24 03:28:09;;;;;;;3.40;3.10;;;8.10;99.90;;;;;;2612538;54;20434;-76
2022/01/24 03:30:37;;;;;;;2.67;2.47;;;7.90;99.90;;;;;;2612591;54;20446;-76
2022/01/24 03:33:04;;;;;;;4.23;3.83;;;7.80;99.90;;;;;;2611609;54;20411;-77
2022/01/24 03:35:31;;;;;;;4.30;3.57;;;7.10;99.90;;;;;;2611260;47;20438;-76
2022/01/24 03:37:57;;;;;;;3.43;3.20;;;7.30;99.90;;;;;;2612144;54;20418;-77
2022/01/24 03:40:22;;;;;;;3.70;3.40;;;7.10;99.90;;;;;;2611762;54;20415;-76
2022/01/24 03:42:49;;;;;;;5.20;3.47;;;7.10;99.90;;;;;;2611607;47;20431;-76
2022/01/24 03:45:16;;;;;;;3.40;3.10;;;7.40;99.90;;;;;;2610709;54;20175;-76
2022/01/24 03:47:55;;;;;;;3.73;3.43;;;7.50;99.90;;;;;;2612798;54;20438;-76
2022/01/24 03:50:21;;;;;;;3.33;3.13;;;7.90;99.90;;;;;;2611170;54;20451;-76
2022/01/24 03:52:47;;;;;;;3.90;3.20;;;7.50;99.90;;;;;;2611872;39;20858;-76
2022/01/24 03:55:13;;;;;;;5.77;3.80;;;7.30;99.90;;;;;;2612536;54;20281;-77
2022/01/24 03:57:39;;;;;;;3.03;2.83;;;7.50;99.90;;;;;;2612661;54;20403;-76
2022/01/24 04:00:08;;;;;;;4.23;3.50;;;7.80;99.90;;;;;;2610577;54;20972;-77
2022/01/24 04:02:39;;;;;;;3.20;2.90;;;8.00;99.90;;;;;;2610937;54;20422;-77
2022/01/24 04:05:05;;;;;;;3.17;2.90;;;7.80;99.90;;;;;;2611206;54;20982;-77
2022/01/24 04:07:31;;;;;;;3.57;3.27;;;8.00;99.90;;;;;;2611694;54;20427;-77
2022/01/24 04:10:03;;;;;;;4.70;3.27;;;7.70;99.90;;;;;;2612564;54;20411;-76
2022/01/24 04:12:29;;;;;;;3.90;3.60;;;7.50;99.90;;;;;;2611556;47;20415;-77
2022/01/24 04:15:08;;;;;;;3.50;2.77;;;7.60;99.90;;;;;;2611278;54;20447;-77
2022/01/24 04:17:40;;;;;;;3.73;3.43;;;7.40;99.90;;;;;;2611625;47;20253;-77
2022/01/24 04:22:53;;;;;;;4.07;3.77;;;6.50;99.90;;;;;;2610944;54;20446;-76
2022/01/24 04:25:23;;;;;;;4.57;3.60;;;6.30;99.90;;;;;;2611660;54;20418;-77
2022/01/24 04:27:54;;;;;;;3.63;3.43;;;6.30;99.90;;;;;;2611234;54;20415;-76
2022/01/24 04:30:21;;;;;;;4.03;3.73;;;6.20;99.90;;;;;;2611414;54;20431;-76
2022/01/24 04:32:47;;;;;;;3.40;3.10;;;6.40;99.90;;;;;;2611688;54;20431;-77
2022/01/24 04:35:13;;;;;;;4.00;3.70;;;6.50;99.90;;;;;;2611283;54;20875;-77
2022/01/24 04:37:39;;;;;;;3.10;2.90;;;6.60;99.90;;;;;;2611573;54;20419;-77
2022/01/24 04:40:06;;;;;;;4.40;3.50;;;6.90;99.90;;;;;;2611494;54;20964;-76
2022/01/24 04:42:42;;;;;;;5.30;3.77;;;6.80;99.90;;;;;;2610904;54;20966;-76
2022/01/24 04:50:44;;;;;;;3.20;2.93;;;7.10;99.90;;;;;;2612212;50;20434;-77
2022/01/24 04:53:32;;;;;;;6.03;4.07;;;7.50;99.90;;;;;;2611324;51;20430;-76
2022/01/24 04:55:58;;;;;;;3.80;3.50;;;7.30;99.90;;;;;;2611617;54;20412;-76
2022/01/24 04:58:23;;;;;;;3.50;3.20;;;6.90;99.90;;;;;;2612354;47;20426;-77
2022/01/24 05:00:50;;;;;;;4.13;3.83;;;6.70;99.90;;;;;;2611556;54;20502;-77
2022/01/24 05:03:16;;;;;;;3.87;3.57;;;6.90;99.90;;;;;;2611920;39;20576;-75
2022/01/24 05:05:42;;;;;;;3.43;3.23;;;7.40;99.90;;;;;;2612449;46;20462;-76
2022/01/24 05:08:09;;;;;;;4.10;3.80;;;6.80;99.90;;;;;;2613045;54;20171;-77
2022/01/24 05:10:41;;;;;;;4.20;3.90;;;6.50;99.90;;;;;;2612862;39;20789;-76
2022/01/24 05:21:43;;;;;;;3.43;3.23;;;6.90;99.90;;;;;;2612566;47;20417;-77
2022/01/24 05:24:09;;;;;;;5.40;4.00;;;7.00;99.90;;;;;;2611922;54;20399;-75
2022/01/24 05:26:34;;;;;;;4.43;4.00;;;7.20;99.90;;;;;;2612155;54;20438;-77
2022/01/24 05:29:00;;;;;;;4.70;4.30;;;7.30;99.90;;;;;;2611987;54;21327;-75
2022/01/24 05:31:26;;;;;;;4.27;3.63;;;7.40;99.90;;;;;;2612832;51;20170;-77
2022/01/24 05:33:51;;;;;;;3.70;3.40;;;7.50;99.90;;;;;;2611569;39;20604;-75
2022/01/24 05:36:17;;;;;;;5.23;4.70;;;7.20;99.90;;;;;;2612314;54;20242;-76
2022/01/24 05:38:43;;;;;;;4.53;4.13;;;7.30;99.90;;;;;;2610971;54;20155;-76
2022/01/24 05:41:09;;;;;;;4.17;3.77;;;7.60;99.90;;;;;;2611887;47;20944;-77
2022/01/24 05:43:35;;;;;;;4.90;4.60;;;7.50;99.90;;;;;;2612365;54;20416;-76
2022/01/24 05:46:01;;;;;;;3.80;3.47;;;7.20;99.90;;;;;;2612197;54;20155;-76
2022/01/24 05:48:28;;;;;;;4.30;4.00;;;7.50;99.90;;;;;;2611380;39;20904;-77
2022/01/24 05:50:54;;;;;;;4.90;4.43;;;7.10;99.90;;;;;;2612761;31;20833;-76
2022/01/24 05:53:20;;;;;;;4.57;4.00;;;6.90;99.90;;;;;;2612274;54;20399;-76
2022/01/24 05:55:45;;;;;;;5.47;4.50;;;6.40;99.90;;;;;;2612512;46;20210;-76
2022/01/24 05:58:11;;;;;;;3.80;3.50;;;6.70;99.90;;;;;;2612590;46;20222;-76
2022/01/24 06:00:37;;;;;;;4.27;3.57;;;6.60;99.90;;;;;;2611785;54;20258;-76
2022/01/24 06:03:03;;;;;;;4.50;4.20;;;6.50;99.90;;;;;;2612401;54;20442;-77
2022/01/24 06:05:29;;;;;;;3.70;3.33;;;6.80;99.90;;;;;;2612524;39;20813;-76
2022/01/24 06:07:56;;;;;;;4.33;3.93;;;7.40;99.90;;;;;;2611893;54;20654;-76
2022/01/24 06:10:21;;;;;;;4.73;4.33;;;7.70;99.90;;;;;;2611789;46;20189;-77
2022/01/24 06:12:47;;;;;;;4.20;3.80;;;7.10;99.90;;;;;;2611815;54;20412;-76
2022/01/24 06:15:13;;;;;;;4.03;3.73;;;6.80;99.90;;;;;;2611732;54;20258;-76
2022/01/24 06:17:39;;;;;;;5.00;4.60;;;6.70;99.90;;;;;;2612116;54;20403;-76
2022/01/24 06:20:06;;;;;;;5.40;4.90;;;6.50;99.90;;;;;;2611664;47;20428;-76
2022/01/24 06:22:32;;;;;;;4.73;4.37;;;6.70;99.90;;;;;;2612247;54;20203;-76
2022/01/24 06:24:57;;;;;;;4.97;4.50;;;7.30;99.90;;;;;;2610589;54;20419;-77
2022/01/24 06:27:23;;;;;;;4.80;4.40;;;7.10;99.90;;;;;;2613277;39;20844;-76
2022/01/24 06:29:49;;;;;;;6.17;5.00;;;6.90;99.90;;;;;;2612356;51;20286;-76
2022/01/24 06:32:15;;;;;;;4.40;4.03;;;6.80;99.90;;;;;;2612747;39;20520;-76
2022/01/24 06:34:41;;;;;;;5.00;4.60;;;6.30;99.90;;;;;;2610933;54;20189;-76
2022/01/24 06:37:07;;;;;;;5.40;4.00;;;6.10;99.90;;;;;;2608953;39;20760;-75
2022/01/24 06:39:33;;;;;;;3.73;3.43;;;6.20;99.90;;;;;;2609601;54;20411;-76
2022/01/24 06:42:14;;;;;;;4.83;4.43;;;6.30;99.90;;;;;;2610620;39;20796;-76
2022/01/24 06:44:40;;;;;;;5.17;4.23;;;5.90;99.90;;;;;;2610716;54;20461;-76
2022/01/24 06:47:07;;;;;;;5.63;4.43;;;6.20;99.90;;;;;;2612056;54;20459;-76
2022/01/24 06:49:35;;;;;;;6.40;4.70;;;6.30;99.90;;;;;;2610670;54;20422;-76
2022/01/24 06:52:01;;;;;;;5.47;4.93;;;6.30;99.90;;;;;;2611054;54;20458;-76
2022/01/24 06:54:27;;;;;;;5.20;4.80;;;6.50;99.90;;;;;;2612679;54;20424;-77
2022/01/24 06:56:52;;;;;;;5.20;4.70;;;6.70;99.90;;;;;;2610443;47;20430;-77
2022/01/24 06:59:18;;;;;;;4.90;4.50;;;7.00;99.90;;;;;;2610524;47;20170;-77
2022/01/24 07:01:44;;;;;;;5.07;4.57;;;6.90;99.90;;;;;;2611322;54;20166;-77
2022/01/24 07:04:10;;;;;;;6.00;5.40;;;6.80;99.90;;;;;;2611177;47;20718;-77
2022/01/24 07:06:35;;;;;;;6.23;5.73;;;6.20;99.90;;;;;;2611327;47;20166;-76
2022/01/24 07:09:03;;;;;;;5.70;4.73;;;6.10;99.90;;;;;;2612619;39;20718;-76
2022/01/24 07:11:29;;;;;;;5.40;4.90;;;6.00;99.90;;;;;;2610774;54;20154;-77
2022/01/24 07:13:55;;;;;;;4.87;4.37;;;6.00;99.90;;;;;;2611895;54;20387;-77
2022/01/24 07:16:20;;;;;;;6.00;5.40;;;6.20;99.90;;;;;;2610529;47;20777;-77
2022/01/24 07:19:08;;;;;;;5.70;5.20;;;6.20;99.90;;;;;;2611577;54;20207;-76
2022/01/24 07:21:32;;;;;;;6.13;5.63;;;6.20;99.90;;;;;;2611911;39;20576;-77
2022/01/24 07:23:58;;;;;;;6.23;5.63;;;6.30;99.90;;;;;;2610516;54;20408;-77
2022/01/24 07:26:24;;;;;;;5.83;5.33;;;6.40;99.90;;;;;;2609562;54;20162;-77
2022/01/24 07:28:49;;;;;;;7.33;5.70;;;6.50;99.90;;;;;;2608887;39;20653;-77
2022/01/24 07:31:15;;;;;;;6.63;5.83;;;6.10;99.90;;;;;;2609371;39;20738;-77
2022/01/24 07:33:41;;;;;;;7.53;5.87;;;6.20;99.90;;;;;;2611354;54;20246;-76
2022/01/24 07:36:07;;;;;;;6.47;5.83;;;6.10;99.90;;;;;;2610491;54;20786;-77
2022/01/24 07:38:33;;;;;;;6.97;5.80;;;6.20;99.90;;;;;;2611590;54;20197;-78
2022/01/24 07:41:00;;;;;;;8.10;5.37;;;6.20;99.90;;;;;;2610847;54;20243;-76
2022/01/24 07:43:26;;;;;;;6.87;6.23;;;6.60;99.90;;;;;;2611758;54;20178;-76
2022/01/24 07:45:52;;;;;;;7.07;6.37;;;6.60;99.90;;;;;;2645206;36;21035;-76
2022/01/24 07:48:19;;;;;;;8.10;6.30;;;6.60;99.90;;;;;;2608416;47;20412;-77
2022/01/24 07:50:47;;;;;;;8.20;6.27;;;6.70;99.90;;;;;;2610488;54;20160;-77
2022/01/24 07:53:14;;;;;;;9.60;7.20;;;6.50;99.90;;;;;;2611168;47;20416;-76
2022/01/24 07:55:41;;;;;;;7.00;6.40;;;6.30;99.90;;;;;;2610489;54;20964;-76
2022/01/24 07:58:07;;;;;;;6.63;6.03;;;6.70;99.90;;;;;;2612134;54;20957;-75
2022/01/24 08:00:34;;;;;;;7.73;6.87;;;6.20;99.90;;;;;;2611928;39;20798;-76
2022/01/24 08:03:00;;;;;;;7.43;6.73;;;6.50;99.90;;;;;;2608104;54;20395;-77
2022/01/24 08:05:26;;;;;;;7.77;6.90;;;6.10;99.90;;;;;;2610712;54;21628;-77
2022/01/24 08:07:53;;;;;;;8.80;7.90;;;6.20;99.90;;;;;;2610304;54;20186;-75
2022/01/24 08:10:19;;;;;;;7.73;6.80;;;6.10;99.90;;;;;;2609986;47;20442;-76
2022/01/24 08:12:45;;;;;;;8.00;6.73;;;6.30;99.90;;;;;;2610296;54;20412;-76
2022/01/24 08:15:14;;;;;;;7.30;6.70;;;6.20;99.90;;;;;;2610000;54;20507;-76
2022/01/24 08:17:41;;;;;;;6.93;6.33;;;6.00;99.90;;;;;;2612557;54;20418;-76
2022/01/24 08:20:09;;;;;;;8.80;7.10;;;5.90;99.90;;;;;;2610875;54;20414;-77
2022/01/24 08:22:34;;;;;;;10.30;6.70;;;5.90;99.90;;;;;;2612935;54;20576;-76
2022/01/24 08:25:04;;;;;;;8.13;6.30;;;6.10;99.90;;;;;;2612316;39;20881;-78
2022/01/24 08:27:34;;;;;;;8.50;7.67;;;6.00;99.90;;;;;;2611252;54;20155;-76
2022/01/24 08:30:03;;;;;;;9.60;8.40;;;6.10;99.90;;;;;;2613083;54;20444;-78
2022/01/24 08:32:29;;;;;;;8.63;7.23;;;6.10;99.90;;;;;;2612552;47;20873;-76
2022/01/24 08:34:56;;;;;;;8.73;7.20;;;6.30;99.90;;;;;;2612221;47;21648;-78
2022/01/24 08:37:22;;;;;;;9.67;7.40;;;6.60;99.90;;;;;;2615898;54;20174;-76
2022/01/24 08:39:48;;;;;;;7.47;6.67;;;6.60;99.90;;;;;;2613850;54;20403;-76
2022/01/24 08:42:32;;;;;;;8.07;7.27;;;6.40;99.90;;;;;;2613039;39;20821;-77
2022/01/24 08:47:31;;;;;;;6.73;5.97;;;6.40;99.90;;;;;;2612844;54;21060;-76
2022/01/24 08:49:59;;;;;;;7.93;7.03;;;6.50;99.90;;;;;;2609868;54;20257;-79
2022/01/24 08:52:25;;;;;;;7.63;6.90;;;6.50;99.90;;;;;;2611916;54;20430;-77
2022/01/24 08:54:52;;;;;;;7.10;6.40;;;6.20;99.90;;;;;;2611023;54;20420;-76
2022/01/24 08:57:25;;;;;;;6.93;6.23;;;6.10;99.90;;;;;;2613440;47;20942;-76
2022/01/24 08:59:54;;;;;;;8.13;7.30;;;6.10;99.90;;;;;;2612705;54;20407;-77
2022/01/24 09:02:21;;;;;;;13.20;8.30;;;6.50;99.90;;;;;;2610889;54;21182;-77
2022/01/24 09:04:47;;;;;;;8.00;7.20;;;6.40;99.90;;;;;;2612858;54;20523;-77
2022/01/24 09:07:15;;;;;;;7.73;6.93;;;6.30;99.90;;;;;;2611170;39;20843;-78
2022/01/24 09:09:41;;;;;;;8.97;7.60;;;6.30;99.90;;;;;;2610838;39;20788;-77
2022/01/24 09:12:11;;;;;;;9.50;7.73;;;6.50;99.90;;;;;;2611112;39;20871;-76
2022/01/24 09:14:43;;;;;;;7.83;7.13;;;6.50;99.90;;;;;;2611183;54;20528;-77
2022/01/24 09:17:11;;;;;;;8.40;6.37;;;6.80;99.90;;;;;;2610956;39;20799;-76
2022/01/24 09:19:37;;;;;;;6.70;6.10;;;6.60;99.90;;;;;;2610506;39;20911;-77
2022/01/24 09:22:03;;;;;;;8.37;6.10;;;6.90;99.90;;;;;;2610585;54;20427;-76
2022/01/24 09:24:29;;;;;;;6.57;5.50;;;6.50;99.90;;;;;;2611428;54;20426;-76
2022/01/24 09:26:55;;;;;;;8.60;7.07;;;6.00;99.90;;;;;;2610502;39;20895;-75
2022/01/24 09:29:20;;;;;;;7.53;6.67;;;5.90;99.90;;;;;;2610953;54;20151;-78
2022/01/24 09:31:46;;;;;;;9.83;7.97;;;6.00;99.90;;;;;;2611317;54;20190;-75
2022/01/24 09:34:12;;;;;;;7.93;7.13;;;6.40;99.90;;;;;;2610163;54;20206;-77
2022/01/24 09:36:38;;;;;;;8.57;7.77;;;6.80;99.90;;;;;;2610732;47;20166;-76
2022/01/24 09:39:04;;;;;;;9.10;7.80;;;6.60;99.90;;;;;;2611467;54;20161;-76
2022/01/24 09:41:30;;;;;;;8.40;7.17;;;6.40;99.90;;;;;;2611268;54;20147;-76
2022/01/24 09:43:56;;;;;;;8.00;7.20;;;6.50;99.90;;;;;;2612244;47;20514;-77
2022/01/24 09:46:21;;;;;;;8.13;7.33;;;6.90;99.90;;;;;;2610858;54;20433;-76
2022/01/24 09:48:48;;;;;;;8.20;5.93;;;6.80;99.90;;;;;;2611450;47;20217;-78
2022/01/24 09:51:14;;;;;;;11.43;7.90;;;6.90;99.90;;;;;;2611089;39;20562;-76
2022/01/24 09:53:40;;;;;;;7.17;5.73;;;6.80;99.90;;;;;;2611435;54;20402;-77
2022/01/24 09:56:07;;;;;;;9.40;8.27;;;6.40;99.90;;;;;;2609063;54;20427;-76
2022/01/24 09:58:36;;;;;;;7.83;6.60;;;6.70;99.90;;;;;;2610838;54;20607;-77
2022/01/24 10:01:05;;;;;;;6.60;5.90;;;7.00;99.90;;;;;;2610661;46;20438;-77
2022/01/24 10:03:31;;;;;;;7.43;6.73;;;7.00;99.90;;;;;;2611175;39;20667;-77
2022/01/24 10:05:57;;;;;;;4.17;3.83;;;7.00;99.90;;;;;;2610025;54;20936;-77
2022/01/24 10:08:24;;;;;;;6.23;5.63;;;6.40;99.90;;;;;;2613165;39;20579;-77
2022/01/24 10:10:56;;;;;;;7.30;6.50;;;6.00;99.90;;;;;;2612073;54;20947;-76
2022/01/24 10:16:35;;;;;;;8.20;6.30;;;6.10;99.90;;;;;;2610924;47;20498;-77
2022/01/24 10:19:10;;;;;;;8.30;7.50;;;6.60;99.90;;;;;;2610393;47;20432;-77
2022/01/24 10:21:49;;;;;;;7.80;7.00;;;6.60;99.90;;;;;;2610334;54;20414;-77
2022/01/24 10:24:30;;;;;;;11.20;7.23;;;6.60;99.90;;;;;;2611585;54;20450;-77
2022/01/24 10:27:16;;;;;;;6.60;5.90;;;7.00;99.90;;;;;;2610005;47;20453;-77
2022/01/24 10:29:48;;;;;;;12.70;7.93;;;7.40;99.90;;;;;;2610744;54;20510;-76
2022/01/24 10:32:33;;;;;;;6.97;6.17;;;7.10;99.90;;;;;;2611802;54;20404;-76
2022/01/24 10:35:31;;;;;;;8.53;5.73;;;6.90;99.90;;;;;;2611247;54;20548;-77
2022/01/24 10:41:17;;;;;;;7.93;7.13;;;7.20;99.90;;;;;;2611245;54;20396;-77
2022/01/24 10:43:44;;;;;;;8.03;7.20;;;7.20;99.90;;;;;;2611798;54;20980;-77
2022/01/24 10:46:10;;;;;;;7.67;6.60;;;7.30;99.90;;;;;;2611363;39;20920;-78
2022/01/24 10:48:41;;;;;;;8.87;7.40;;;7.10;99.90;;;;;;2612337;54;20439;-77
2022/01/24 10:51:12;;;;;;;7.30;6.53;;;7.10;99.90;;;;;;2609753;54;20407;-76
2022/01/24 10:53:54;;;;;;;7.03;6.40;;;6.90;99.90;;;;;;2611734;54;20432;-77
2022/01/24 10:56:24;;;;;;;8.03;7.23;;;6.80;99.90;;;;;;2609220;46;20415;-77
2022/01/24 10:58:49;;;;;;;6.43;5.83;;;7.00;99.90;;;;;;2611163;54;20435;-77
2022/01/24 11:01:15;;;;;;;7.60;6.80;;;7.10;99.90;;;;;;2610262;47;21268;-77
2022/01/24 11:03:41;;;;;;;7.53;6.83;;;7.30;99.90;;;;;;2610285;54;20682;-78
2022/01/24 11:06:07;;;;;;;6.83;6.13;;;7.90;99.90;;;;;;2613995;46;20166;-76
2022/01/24 11:08:32;;;;;;;9.70;7.47;;;7.50;99.90;;;;;;2614611;47;20182;-78
2022/01/24 11:10:58;;;;;;;7.80;7.00;;;7.60;99.90;;;;;;2614416;39;20583;-78
2022/01/24 11:13:30;;;;;;;6.97;6.40;;;7.80;99.90;;;;;;2612691;54;20659;-78
2022/01/24 11:16:00;;;;;;;9.93;6.57;;;8.10;99.90;;;;;;2611030;54;20143;-78
2022/01/24 11:18:26;;;;;;;8.07;6.40;;;7.90;99.90;;;;;;2611198;54;20454;-78
2022/01/24 11:21:01;;;;;;;9.87;7.20;;;7.80;99.90;;;;;;2610420;54;20408;-76
2022/01/24 11:23:28;;;;;;;7.70;6.77;;;7.50;99.90;;;;;;2611429;54;20738;-77
2022/01/24 11:26:01;;;;;;;7.37;6.73;;;7.50;99.90;;;;;;2611914;54;20384;-79
2022/01/24 11:28:27;;;;;;;7.77;7.00;;;7.80;99.90;;;;;;2609647;47;20426;-77
2022/01/24 11:31:25;;;;;;;8.20;7.40;;;7.30;99.90;;;;;;2611506;46;20451;-77
2022/01/24 11:34:08;;;;;;;8.50;7.60;;;7.00;99.90;;;;;;2610835;54;20432;-78
2022/01/24 11:36:39;;;;;;;7.67;6.37;;;7.30;99.90;;;;;;2610440;54;20404;-77
2022/01/24 11:39:05;;;;;;;8.47;7.67;;;7.50;99.90;;;;;;2610892;54;20424;-77
2022/01/24 11:41:35;;;;;;;6.97;6.30;;;7.60;99.90;;;;;;2609226;46;20427;-75
2022/01/24 11:44:13;;;;;;;7.43;6.67;;;7.30;99.90;;;;;;2610603;47;20955;-77
2022/01/24 11:46:55;;;;;;;7.97;6.80;;;7.80;99.90;;;;;;2610936;47;20979;-77
2022/01/24 11:49:27;;;;;;;9.03;7.20;;;7.10;99.90;;;;;;2611749;54;20443;-76
2022/01/24 11:52:18;;;;;;;7.90;7.20;;;7.30;99.90;;;;;;2609383;39;20850;-77
2022/01/24 11:57:22;;;;;;;9.40;6.47;;;7.50;99.90;;;;;;2608547;47;20419;-77
2022/01/24 11:59:50;;;;;;;7.90;7.20;;;7.80;99.90;;;;;;2611471;54;20135;-77
2022/01/24 12:02:23;;;;;;;7.93;7.13;;;8.00;99.90;;;;;;2610487;54;20416;-77
2022/01/24 12:04:54;;;;;;;8.83;7.93;;;8.20;99.90;;;;;;2611444;54;20396;-77
2022/01/24 12:07:40;;;;;;;7.80;7.00;;;7.50;99.90;;;;;;2610651;47;20459;-77
2022/01/24 12:10:43;;;;;;;9.10;7.90;;;7.70;99.90;;;;;;2611484;54;20419;-78
2022/01/24 12:13:25;;;;;;;8.47;7.33;;;7.70;99.90;;;;;;2609675;54;20407;-78
2022/01/24 12:15:56;;;;;;;9.07;8.17;;;7.40;99.90;;;;;;2610584;39;20550;-77
2022/01/24 12:18:43;;;;;;;14.47;6.70;;;7.40;99.90;;;;;;2609997;54;20404;-77
2022/01/24 12:21:10;;;;;;;8.80;7.90;;;6.80;99.90;;;;;;2610336;47;20423;-77
2022/01/24 12:23:47;;;;;;;8.67;7.77;;;7.00;99.90;;;;;;2609779;46;20419;-76
2022/01/24 12:26:13;;;;;;;9.03;7.37;;;7.40;99.90;;;;;;2610104;54;20436;-77
2022/01/24 12:28:42;;;;;;;7.60;6.87;;;7.70;99.90;;;;;;2609655;54;21147;-77
2022/01/24 12:31:35;;;;;;;9.77;7.30;;;8.30;99.90;;;;;;2610268;54;20154;-78
2022/01/24 12:34:23;;;;;;;7.53;6.67;;;8.10;99.90;;;;;;2609264;54;20542;-77
2022/01/24 12:37:17;;;;;;;8.80;7.00;;;7.80;99.90;;;;;;2610236;31;21004;-77
2022/01/24 12:39:50;;;;;;;7.80;6.90;;;7.90;99.90;;;;;;2609041;54;20427;-77
2022/01/24 12:42:33;;;;;;;11.60;7.80;;;7.60;99.90;;;;;;2609160;47;20419;-77
2022/01/24 12:47:54;;;;;;;7.00;6.30;;;8.20;99.90;;;;;;2609585;48;20424;-77
2022/01/24 12:50:23;;;;;;;9.53;7.00;;;8.00;99.90;;;;;;2610840;54;20457;-78
2022/01/24 12:52:49;;;;;;;9.40;7.70;;;8.10;99.90;;;;;;2610716;54;20408;-77
2022/01/24 12:55:15;;;;;;;8.30;7.43;;;7.60;99.90;;;;;;2609787;54;20563;-77
2022/01/24 12:57:42;;;;;;;10.37;9.10;;;7.70;99.90;;;;;;2610704;54;20411;-78
2022/01/24 13:00:16;;;;;;;9.70;7.00;;;7.50;99.90;;;;;;2611182;54;20166;-77
2022/01/24 13:02:43;;;;;;;9.43;6.93;;;7.70;99.90;;;;;;2609863;47;20465;-77
2022/01/24 13:05:28;;;;;;;8.53;7.47;;;8.00;99.90;;;;;;2610178;54;21795;-78
2022/01/24 13:07:57;;;;;;;7.50;6.83;;;8.00;99.90;;;;;;2610160;54;20523;-78
2022/01/24 13:10:26;;;;;;;10.63;8.03;;;8.30;99.90;;;;;;2611895;39;20814;-78
2022/01/24 13:13:05;;;;;;;9.80;7.60;;;8.70;99.90;;;;;;2612032;54;20434;-77
2022/01/24 13:21:22;;;;;;;11.03;6.50;;;7.80;99.90;;;;;;2611549;51;20427;-77
2022/01/24 13:23:51;;;;;;;9.70;7.10;;;7.90;99.90;;;;;;2611229;47;21092;-77
2022/01/24 13:26:17;;;;;;;8.67;7.77;;;7.50;99.90;;;;;;2612228;39;20823;-78
2022/01/24 13:28:43;;;;;;;9.73;8.70;;;7.50;99.90;;;;;;2611705;54;20534;-77
2022/01/24 13:31:10;;;;;;;9.03;8.00;;;6.80;99.90;;;;;;2611821;39;20792;-75
2022/01/24 13:33:43;;;;;;;8.40;7.60;;;6.80;99.90;;;;;;2611019;54;21122;-77
2022/01/24 13:36:09;;;;;;;8.90;7.33;;;7.10;99.90;;;;;;2612638;39;21009;-77
2022/01/24 13:38:38;;;;;;;7.13;6.50;;;7.20;99.90;;;;;;2612096;49;20427;-77
2022/01/24 13:41:09;;;;;;;9.13;7.37;;;7.70;99.90;;;;;;2610690;54;20439;-77
2022/01/24 13:43:36;;;;;;;7.80;7.00;;;8.00;99.90;;;;;;2612478;54;20455;-78
2022/01/24 13:46:08;;;;;;;8.47;6.90;;;7.90;99.90;;;;;;2611756;54;20438;-77
2022/01/24 13:48:58;;;;;;;7.90;7.03;;;8.50;99.90;;;;;;2612177;39;20909;-77
2022/01/24 13:51:33;;;;;;;8.20;7.43;;;8.10;99.90;;;;;;2611129;54;20435;-77
2022/01/24 13:54:02;;;;;;;7.93;7.13;;;7.80;99.90;;;;;;2610654;54;20415;-77
2022/01/24 13:56:30;;;;;;;9.97;8.97;;;7.90;99.90;;;;;;2610093;54;20435;-76
2022/01/24 13:59:02;;;;;;;9.40;7.30;;;7.60;99.90;;;;;;2611822;54;20415;-77
2022/01/24 14:01:29;;;;;;;9.33;8.43;;;7.60;99.90;;;;;;2609531;47;20547;-77
2022/01/24 14:04:00;;;;;;;8.23;7.43;;;7.60;99.90;;;;;;2609638;54;20450;-76
2022/01/24 14:06:31;;;;;;;8.80;8.10;;;7.80;99.90;;;;;;2611309;54;20403;-77
2022/01/24 14:09:11;;;;;;;8.10;7.33;;;8.10;99.90;;;;;;2612299;54;20427;-77
2022/01/24 14:11:47;;;;;;;9.03;8.13;;;8.00;99.90;;;;;;2611475;54;20400;-77
2022/01/24 14:14:17;;;;;;;10.37;8.90;;;7.30;99.90;;;;;;2610567;54;20485;-77
2022/01/24 14:17:22;;;;;;;9.60;8.60;;;7.20;99.90;;;;;;2611075;54;20402;-77
2022/01/24 14:19:35;;;;;;;13.20;7.70;;;7.00;99.90;;;;;;2611440;54;20436;-77
2022/01/24 14:22:12;;;;;;;11.63;9.90;;;7.30;99.90;;;;;;2611713;54;20415;-78
2022/01/24 14:24:57;;;;;;;11.60;9.17;;;6.60;99.90;;;;;;2612993;54;20453;-77
2022/01/24 14:27:46;;;;;;;11.67;8.40;;;7.20;99.90;;;;;;2610977;54;20407;-76
2022/01/24 14:30:14;;;;;;;11.07;8.53;;;7.40;99.90;;;;;;2610550;47;20466;-76
2022/01/24 14:33:14;;;;;;;9.30;8.40;;;7.90;99.90;;;;;;2612703;47;20415;-77
2022/01/24 14:35:56;;;;;;;8.90;7.10;;;7.80;99.90;;;;;;2611247;54;20427;-77
2022/01/24 14:38:39;;;;;;;9.90;9.10;;;7.80;99.90;;;;;;2611583;46;20543;-78
2022/01/24 14:41:18;;;;;;;9.60;8.50;;;7.80;99.90;;;;;;2612273;54;21036;-77
2022/01/24 14:46:35;;;;;;;10.23;9.27;;;6.70;99.90;;;;;;2613763;54;20424;-77
2022/01/24 14:49:03;;;;;;;8.77;7.87;;;6.30;99.90;;;;;;2612011;39;20838;-77
2022/01/24 14:51:41;;;;;;;10.40;9.40;;;5.80;99.90;;;;;;2611818;54;20435;-78